sensor_id;sensor_type;location;lat;lon;timestamp;temperature;humidity
20528;DHT22;23612;50.894;10.700;2023-12-04T00:00:08;-2.40;99.90
20528;DHT22;23612;50.894;10.700;2023-12-04T00:02:33;-2.30;99.90
20528;DHT22;23612;50.894;10.700;2023-12-04T00:04:59;-2.20;99.90
20528;DHT22;23612;50.894;10.700;2023-12-04T00:07:24;-2.00;99.90
20528;DHT22;23612;50.894;10.700;2023-12-04T00:09:50;-1.80;99.90
20528;DHT22;23612;50.894;10.700;2023-12-04T00:12:15;-1.80;99.90
20528;DHT22;23612;50.894;10.700;2023-12-04T00:14:41;-1.60;99.90
20528;DHT22;23612;50.894;10.700;2023-12-04T00:17:06;-1.50;99.90
20528;DHT22;23612;50.894;10.700;2023-12-04T00:19:32;-1.30;99.90
20528;DHT22;23612;50.894;10.700;2023-12-04T00:21:57;-1.30;99.90
20528;DHT22;23612;50.894;10.700;2023-12-04T00:24:23;-1.20;99.90
20528;DHT22;23612;50.894;10.700;2023-12-04T00:26:48;-1.10;99.90
20528;DHT22;23612;50.894;10.700;2023-12-04T00:29:13;-1.10;99.90
20528;DHT22;23612;50.894;10.700;2023-12-04T00:31:39;-1.10;99.90
20528;DHT22;23612;50.894;10.700;2023-12-04T00:34:05;-1.10;99.90
20528;DHT22;23612;50.894;10.700;2023-12-04T00:36:30;-1.10;99.90
20528;DHT22;23612;50.894;10.700;2023-12-04T00:38:56;-1.10;99.90
20528;DHT22;23612;50.894;10.700;2023-12-04T00:41:21;-1.20;99.90
20528;DHT22;23612;50.894;10.700;2023-12-04T00:43:47;-1.30;99.90
20528;DHT22;23612;50.894;10.700;2023-12-04T00:46:12;-1.40;99.90
20528;DHT22;23612;50.894;10.700;2023-12-04T00:48:38;-1.40;99.90
20528;DHT22;23612;50.894;10.700;2023-12-04T00:51:03;-1.40;99.90
20528;DHT22;23612;50.894;10.700;2023-12-04T00:53:29;-1.50;99.90
20528;DHT22;23612;50.894;10.700;2023-12-04T00:55:54;-1.40;99.90
20528;DHT22;23612;50.894;10.700;2023-12-04T00:58:20;-1.40;99.90
20528;DHT22;23612;50.894;10.700;2023-12-04T01:00:45;-1.50;99.90
20528;DHT22;23612;50.894;10.700;2023-12-04T01:03:14;-1.50;99.90
20528;DHT22;23612;50.894;10.700;2023-12-04T01:05:40;-1.50;99.90
20528;DHT22;23612;50.894;10.700;2023-12-04T01:08:05;-1.40;99.90
20528;DHT22;23612;50.894;10.700;2023-12-04T01:10:30;-1.40;99.90
20528;DHT22;23612;50.894;10.700;2023-12-04T01:12:56;-1.40;99.90
20528;DHT22;23612;50.894;10.700;2023-12-04T01:15:21;-1.30;99.90
20528;DHT22;23612;50.894;10.700;2023-12-04T01:17:48;-1.30;99.90
20528;DHT22;23612;50.894;10.700;2023-12-04T01:20:14;-1.30;99.90
20528;DHT22;23612;50.894;10.700;2023-12-04T01:22:40;-1.40;99.90
20528;DHT22;23612;50.894;10.700;2023-12-04T01:25:06;-1.40;99.90
20528;DHT22;23612;50.894;10.700;2023-12-04T01:27:32;-1.30;99.90
20528;DHT22;23612;50.894;10.700;2023-12-04T01:30:00;-1.40;99.90
20528;DHT22;23612;50.894;10.700;2023-12-04T01:32:26;-1.50;99.90
20528;DHT22;23612;50.894;10.700;2023-12-04T01:34:51;-1.50;99.90
20528;DHT22;23612;50.894;10.700;2023-12-04T01:37:17;-1.50;99.90
20528;DHT22;23612;50.894;10.700;2023-12-04T01:39:42;-1.50;99.90
20528;DHT22;23612;50.894;10.700;2023-12-04T01:42:08;-1.40;99.90
20528;DHT22;23612;50.894;10.700;2023-12-04T01:44:33;-1.40;99.90
20528;DHT22;23612;50.894;10.700;2023-12-04T01:46:58;-1.30;99.90
20528;DHT22;23612;50.894;10.700;2023-12-04T01:49:24;-1.20;99.90
20528;DHT22;23612;50.894;10.700;2023-12-04T01:51:50;-1.20;99.90
20528;DHT22;23612;50.894;10.700;2023-12-04T01:54:16;-1.20;99.90
20528;DHT22;23612;50.894;10.700;2023-12-04T01:56:42;-1.10;99.90
20528;DHT22;23612;50.894;10.700;2023-12-04T01:59:09;-1.10;99.90
20528;DHT22;23612;50.894;10.700;2023-12-04T02:01:35;-1.10;99.90
20528;DHT22;23612;50.894;10.700;2023-12-04T02:04:02;-1.00;99.90
20528;DHT22;23612;50.894;10.700;2023-12-04T02:06:27;-0.90;99.90
20528;DHT22;23612;50.894;10.700;2023-12-04T02:08:53;-0.80;99.90
20528;DHT22;23612;50.894;10.700;2023-12-04T02:11:18;-0.90;99.90
20528;DHT22;23612;50.894;10.700;2023-12-04T02:13:44;-0.90;99.90
20528;DHT22;23612;50.894;10.700;2023-12-04T02:16:10;-1.00;99.90
20528;DHT22;23612;50.894;10.700;2023-12-04T02:18:37;-1.10;99.90
20528;DHT22;23612;50.894;10.700;2023-12-04T02:21:03;-1.10;99.90
20528;DHT22;23612;50.894;10.700;2023-12-04T02:23:29;-1.00;99.90
20528;DHT22;23612;50.894;10.700;2023-12-04T02:25:59;-0.90;99.90
20528;DHT22;23612;50.894;10.700;2023-12-04T02:28:29;-0.70;99.90
20528;DHT22;23612;50.894;10.700;2023-12-04T02:30:57;-0.60;99.90
20528;DHT22;23612;50.894;10.700;2023-12-04T02:33:24;-0.60;99.90
20528;DHT22;23612;50.894;10.700;2023-12-04T02:35:51;-0.70;99.90
20528;DHT22;23612;50.894;10.700;2023-12-04T02:38:18;-0.80;99.90
20528;DHT22;23612;50.894;10.700;2023-12-04T02:40:43;-0.90;99.90
20528;DHT22;23612;50.894;10.700;2023-12-04T02:43:09;-0.80;99.90
20528;DHT22;23612;50.894;10.700;2023-12-04T02:45:34;-0.80;99.90
20528;DHT22;23612;50.894;10.700;2023-12-04T02:48:00;-0.90;99.90
20528;DHT22;23612;50.894;10.700;2023-12-04T02:50:25;-0.80;99.90
20528;DHT22;23612;50.894;10.700;2023-12-04T02:52:51;-0.70;99.90
20528;DHT22;23612;50.894;10.700;2023-12-04T02:55:16;-0.70;99.90
20528;DHT22;23612;50.894;10.700;2023-12-04T02:57:42;-0.60;99.90
20528;DHT22;23612;50.894;10.700;2023-12-04T03:00:08;-0.40;99.90
20528;DHT22;23612;50.894;10.700;2023-12-04T03:02:33;-0.30;99.90
20528;DHT22;23612;50.894;10.700;2023-12-04T03:04:59;-0.20;99.90
20528;DHT22;23612;50.894;10.700;2023-12-04T03:07:24;-0.20;99.90
20528;DHT22;23612;50.894;10.700;2023-12-04T03:09:50;-0.10;99.90
20528;DHT22;23612;50.894;10.700;2023-12-04T03:12:16;-0.10;99.90
20528;DHT22;23612;50.894;10.700;2023-12-04T03:14:42;-0.10;99.90
20528;DHT22;23612;50.894;10.700;2023-12-04T03:17:07;-0.10;99.90
20528;DHT22;23612;50.894;10.700;2023-12-04T03:19:33;-0.20;99.90
20528;DHT22;23612;50.894;10.700;2023-12-04T03:21:59;-0.20;99.90
20528;DHT22;23612;50.894;10.700;2023-12-04T03:24:25;-0.20;99.90
20528;DHT22;23612;50.894;10.700;2023-12-04T03:26:50;-0.20;99.90
20528;DHT22;23612;50.894;10.700;2023-12-04T03:29:16;-0.20;99.90
20528;DHT22;23612;50.894;10.700;2023-12-04T03:31:41;-0.10;99.90
20528;DHT22;23612;50.894;10.700;2023-12-04T03:34:07;-0.10;99.90
20528;DHT22;23612;50.894;10.700;2023-12-04T03:36:32;-0.10;99.90
20528;DHT22;23612;50.894;10.700;2023-12-04T03:38:57;0.00;99.90
20528;DHT22;23612;50.894;10.700;2023-12-04T03:41:23;0.00;99.90
20528;DHT22;23612;50.894;10.700;2023-12-04T03:43:49;-0.10;99.90
20528;DHT22;23612;50.894;10.700;2023-12-04T03:46:14;-0.10;99.90
20528;DHT22;23612;50.894;10.700;2023-12-04T03:48:40;-0.10;99.90
20528;DHT22;23612;50.894;10.700;2023-12-04T03:51:05;-0.20;99.90
20528;DHT22;23612;50.894;10.700;2023-12-04T03:53:31;-0.20;99.90
20528;DHT22;23612;50.894;10.700;2023-12-04T03:55:58;-0.20;99.90
20528;DHT22;23612;50.894;10.700;2023-12-04T03:58:24;-0.20;99.90
20528;DHT22;23612;50.894;10.700;2023-12-04T04:00:49;-0.10;99.90
20528;DHT22;23612;50.894;10.700;2023-12-04T04:03:15;-0.10;99.90
20528;DHT22;23612;50.894;10.700;2023-12-04T04:05:40;0.00;99.90
20528;DHT22;23612;50.894;10.700;2023-12-04T04:08:06;0.00;99.90
20528;DHT22;23612;50.894;10.700;2023-12-04T04:10:33;0.00;99.90
20528;DHT22;23612;50.894;10.700;2023-12-04T04:12:58;0.00;99.90
20528;DHT22;23612;50.894;10.700;2023-12-04T04:15:25;0.00;99.90
20528;DHT22;23612;50.894;10.700;2023-12-04T04:17:51;0.00;99.90
20528;DHT22;23612;50.894;10.700;2023-12-04T04:20:16;0.00;99.90
20528;DHT22;23612;50.894;10.700;2023-12-04T04:22:42;0.00;99.90
20528;DHT22;23612;50.894;10.700;2023-12-04T04:25:08;0.10;99.90
20528;DHT22;23612;50.894;10.700;2023-12-04T04:27:34;0.10;99.90
20528;DHT22;23612;50.894;10.700;2023-12-04T04:30:00;0.00;99.90
20528;DHT22;23612;50.894;10.700;2023-12-04T04:32:26;0.00;99.90
20528;DHT22;23612;50.894;10.700;2023-12-04T04:34:51;0.00;99.90
20528;DHT22;23612;50.894;10.700;2023-12-04T04:37:17;0.00;99.90
20528;DHT22;23612;50.894;10.700;2023-12-04T04:39:43;0.00;99.90
20528;DHT22;23612;50.894;10.700;2023-12-04T04:42:08;-0.10;99.90
20528;DHT22;23612;50.894;10.700;2023-12-04T04:44:34;-0.10;99.90
20528;DHT22;23612;50.894;10.700;2023-12-04T04:46:59;-0.10;99.90
20528;DHT22;23612;50.894;10.700;2023-12-04T04:49:25;-0.10;99.90
20528;DHT22;23612;50.894;10.700;2023-12-04T04:51:50;-0.20;99.90
20528;DHT22;23612;50.894;10.700;2023-12-04T04:54:16;-0.20;99.90
20528;DHT22;23612;50.894;10.700;2023-12-04T04:56:41;-0.20;99.90
20528;DHT22;23612;50.894;10.700;2023-12-04T04:59:07;-0.20;99.90
20528;DHT22;23612;50.894;10.700;2023-12-04T05:01:32;-0.20;99.90
20528;DHT22;23612;50.894;10.700;2023-12-04T05:03:57;-0.30;99.90
20528;DHT22;23612;50.894;10.700;2023-12-04T05:06:23;-0.30;99.90
20528;DHT22;23612;50.894;10.700;2023-12-04T05:08:49;-0.30;99.90
20528;DHT22;23612;50.894;10.700;2023-12-04T05:11:17;-0.30;99.90
20528;DHT22;23612;50.894;10.700;2023-12-04T05:13:44;-0.30;99.90
20528;DHT22;23612;50.894;10.700;2023-12-04T05:16:10;-0.40;99.90
20528;DHT22;23612;50.894;10.700;2023-12-04T05:18:35;-0.40;99.90
20528;DHT22;23612;50.894;10.700;2023-12-04T05:21:01;-0.50;99.90
20528;DHT22;23612;50.894;10.700;2023-12-04T05:23:26;-0.60;99.90
20528;DHT22;23612;50.894;10.700;2023-12-04T05:25:52;-0.60;99.90
20528;DHT22;23612;50.894;10.700;2023-12-04T05:28:17;-0.70;99.90
20528;DHT22;23612;50.894;10.700;2023-12-04T05:30:43;-0.70;99.90
20528;DHT22;23612;50.894;10.700;2023-12-04T05:33:08;-0.80;99.90
20528;DHT22;23612;50.894;10.700;2023-12-04T05:35:34;-0.80;99.90
20528;DHT22;23612;50.894;10.700;2023-12-04T05:38:00;-0.90;99.90
20528;DHT22;23612;50.894;10.700;2023-12-04T05:40:25;-0.90;99.90
20528;DHT22;23612;50.894;10.700;2023-12-04T05:42:51;-1.00;99.90
20528;DHT22;23612;50.894;10.700;2023-12-04T05:45:16;-1.00;99.90
20528;DHT22;23612;50.894;10.700;2023-12-04T05:47:42;-1.10;99.90
20528;DHT22;23612;50.894;10.700;2023-12-04T05:50:08;-1.10;99.90
20528;DHT22;23612;50.894;10.700;2023-12-04T05:52:33;-1.10;99.90
20528;DHT22;23612;50.894;10.700;2023-12-04T05:54:59;-1.10;99.90
20528;DHT22;23612;50.894;10.700;2023-12-04T05:57:24;-1.20;99.90
20528;DHT22;23612;50.894;10.700;2023-12-04T05:59:50;-1.20;99.90
20528;DHT22;23612;50.894;10.700;2023-12-04T06:02:15;-1.20;99.90
20528;DHT22;23612;50.894;10.700;2023-12-04T06:04:41;-1.10;99.90
20528;DHT22;23612;50.894;10.700;2023-12-04T06:07:07;-1.00;99.90
20528;DHT22;23612;50.894;10.700;2023-12-04T06:09:32;-0.90;99.90
20528;DHT22;23612;50.894;10.700;2023-12-04T06:11:58;-1.00;99.90
20528;DHT22;23612;50.894;10.700;2023-12-04T06:14:29;-1.10;99.90
20528;DHT22;23612;50.894;10.700;2023-12-04T06:16:55;-1.20;99.90
20528;DHT22;23612;50.894;10.700;2023-12-04T06:19:21;-1.30;99.90
20528;DHT22;23612;50.894;10.700;2023-12-04T06:21:46;-1.30;99.90
20528;DHT22;23612;50.894;10.700;2023-12-04T06:24:12;-1.40;99.90
20528;DHT22;23612;50.894;10.700;2023-12-04T06:26:41;-1.50;99.90
20528;DHT22;23612;50.894;10.700;2023-12-04T06:29:08;-1.50;99.90
20528;DHT22;23612;50.894;10.700;2023-12-04T06:31:33;-1.60;99.90
20528;DHT22;23612;50.894;10.700;2023-12-04T06:33:59;-1.50;99.90
20528;DHT22;23612;50.894;10.700;2023-12-04T06:36:25;-1.50;99.90
20528;DHT22;23612;50.894;10.700;2023-12-04T06:38:53;-1.20;99.90
20528;DHT22;23612;50.894;10.700;2023-12-04T06:41:19;-1.10;99.90
20528;DHT22;23612;50.894;10.700;2023-12-04T06:43:46;-1.10;99.90
20528;DHT22;23612;50.894;10.700;2023-12-04T06:46:14;-1.00;99.90
20528;DHT22;23612;50.894;10.700;2023-12-04T06:48:41;-1.00;99.90
20528;DHT22;23612;50.894;10.700;2023-12-04T06:51:08;-1.00;99.90
20528;DHT22;23612;50.894;10.700;2023-12-04T06:53:33;-1.00;99.90
20528;DHT22;23612;50.894;10.700;2023-12-04T06:55:59;-0.80;99.90
20528;DHT22;23612;50.894;10.700;2023-12-04T06:58:24;-0.70;99.90
20528;DHT22;23612;50.894;10.700;2023-12-04T07:00:50;-0.50;99.90
20528;DHT22;23612;50.894;10.700;2023-12-04T07:03:15;-0.60;99.90
20528;DHT22;23612;50.894;10.700;2023-12-04T07:05:41;-0.70;99.90
20528;DHT22;23612;50.894;10.700;2023-12-04T07:08:07;-0.80;99.90
20528;DHT22;23612;50.894;10.700;2023-12-04T07:10:32;-0.80;99.90
20528;DHT22;23612;50.894;10.700;2023-12-04T07:12:58;-0.70;99.90
20528;DHT22;23612;50.894;10.700;2023-12-04T07:15:23;-0.60;99.90
20528;DHT22;23612;50.894;10.700;2023-12-04T07:17:49;-0.50;99.90
20528;DHT22;23612;50.894;10.700;2023-12-04T07:20:14;-0.40;99.90
20528;DHT22;23612;50.894;10.700;2023-12-04T07:22:40;-0.30;99.90
20528;DHT22;23612;50.894;10.700;2023-12-04T07:25:06;-0.30;99.90
20528;DHT22;23612;50.894;10.700;2023-12-04T07:27:35;-0.20;99.90
20528;DHT22;23612;50.894;10.700;2023-12-04T07:30:00;-0.30;99.90
20528;DHT22;23612;50.894;10.700;2023-12-04T07:32:26;-0.30;99.90
20528;DHT22;23612;50.894;10.700;2023-12-04T07:34:51;-0.20;99.90
20528;DHT22;23612;50.894;10.700;2023-12-04T07:37:17;-0.30;99.90
20528;DHT22;23612;50.894;10.700;2023-12-04T07:39:43;-0.20;99.90
20528;DHT22;23612;50.894;10.700;2023-12-04T07:42:11;-0.10;99.90
20528;DHT22;23612;50.894;10.700;2023-12-04T07:44:37;0.00;99.90
20528;DHT22;23612;50.894;10.700;2023-12-04T07:47:02;0.00;99.90
20528;DHT22;23612;50.894;10.700;2023-12-04T07:49:28;0.10;99.90
20528;DHT22;23612;50.894;10.700;2023-12-04T07:51:53;0.00;99.90
20528;DHT22;23612;50.894;10.700;2023-12-04T07:54:19;0.10;99.90
20528;DHT22;23612;50.894;10.700;2023-12-04T07:56:44;0.20;99.90
20528;DHT22;23612;50.894;10.700;2023-12-04T07:59:10;0.20;99.90
20528;DHT22;23612;50.894;10.700;2023-12-04T08:01:35;0.40;99.90
20528;DHT22;23612;50.894;10.700;2023-12-04T08:04:01;0.50;99.90
20528;DHT22;23612;50.894;10.700;2023-12-04T08:06:27;0.60;99.90
20528;DHT22;23612;50.894;10.700;2023-12-04T08:08:53;0.60;99.90
20528;DHT22;23612;50.894;10.700;2023-12-04T08:11:19;0.70;99.90
20528;DHT22;23612;50.894;10.700;2023-12-04T08:13:45;0.70;99.90
20528;DHT22;23612;50.894;10.700;2023-12-04T08:16:14;0.70;99.90
20528;DHT22;23612;50.894;10.700;2023-12-04T08:18:42;0.80;99.90
20528;DHT22;23612;50.894;10.700;2023-12-04T08:21:09;0.90;99.90
20528;DHT22;23612;50.894;10.700;2023-12-04T08:23:34;1.00;99.90
20528;DHT22;23612;50.894;10.700;2023-12-04T08:26:00;1.20;99.90
20528;DHT22;23612;50.894;10.700;2023-12-04T08:28:25;1.20;99.90
20528;DHT22;23612;50.894;10.700;2023-12-04T08:30:51;1.30;99.90
20528;DHT22;23612;50.894;10.700;2023-12-04T08:33:16;1.40;99.90
20528;DHT22;23612;50.894;10.700;2023-12-04T08:35:43;1.50;99.90
20528;DHT22;23612;50.894;10.700;2023-12-04T08:38:08;1.60;99.90
20528;DHT22;23612;50.894;10.700;2023-12-04T08:40:34;1.60;99.90
20528;DHT22;23612;50.894;10.700;2023-12-04T08:42:59;1.50;99.90
20528;DHT22;23612;50.894;10.700;2023-12-04T08:45:25;1.60;99.90
20528;DHT22;23612;50.894;10.700;2023-12-04T08:47:50;1.70;99.90
20528;DHT22;23612;50.894;10.700;2023-12-04T08:50:16;1.70;99.90
20528;DHT22;23612;50.894;10.700;2023-12-04T08:52:42;1.70;99.90
20528;DHT22;23612;50.894;10.700;2023-12-04T08:55:07;1.70;99.90
20528;DHT22;23612;50.894;10.700;2023-12-04T08:57:33;1.80;99.90
20528;DHT22;23612;50.894;10.700;2023-12-04T08:59:58;1.90;99.90
20528;DHT22;23612;50.894;10.700;2023-12-04T09:02:24;1.80;99.90
20528;DHT22;23612;50.894;10.700;2023-12-04T09:04:49;1.80;99.90
20528;DHT22;23612;50.894;10.700;2023-12-04T09:07:15;1.80;99.90
20528;DHT22;23612;50.894;10.700;2023-12-04T09:09:41;1.60;99.90
20528;DHT22;23612;50.894;10.700;2023-12-04T09:12:06;1.80;99.90
20528;DHT22;23612;50.894;10.700;2023-12-04T09:14:34;2.10;99.90
20528;DHT22;23612;50.894;10.700;2023-12-04T09:16:59;2.50;99.90
20528;DHT22;23612;50.894;10.700;2023-12-04T09:19:25;2.70;99.90
20528;DHT22;23612;50.894;10.700;2023-12-04T09:21:50;2.90;99.90
20528;DHT22;23612;50.894;10.700;2023-12-04T09:24:16;3.00;99.90
20528;DHT22;23612;50.894;10.700;2023-12-04T09:26:41;3.00;99.90
20528;DHT22;23612;50.894;10.700;2023-12-04T09:29:10;3.10;99.90
20528;DHT22;23612;50.894;10.700;2023-12-04T09:31:37;3.40;99.90
20528;DHT22;23612;50.894;10.700;2023-12-04T09:34:02;3.60;99.90
20528;DHT22;23612;50.894;10.700;2023-12-04T09:36:28;3.90;99.90
20528;DHT22;23612;50.894;10.700;2023-12-04T09:38:54;3.50;99.90
20528;DHT22;23612;50.894;10.700;2023-12-04T09:41:21;3.50;99.90
20528;DHT22;23612;50.894;10.700;2023-12-04T09:43:47;3.80;99.90
20528;DHT22;23612;50.894;10.700;2023-12-04T09:46:13;3.90;99.90
20528;DHT22;23612;50.894;10.700;2023-12-04T09:48:40;4.10;99.90
20528;DHT22;23612;50.894;10.700;2023-12-04T09:51:07;4.00;99.90
20528;DHT22;23612;50.894;10.700;2023-12-04T09:53:35;4.00;99.90
20528;DHT22;23612;50.894;10.700;2023-12-04T09:56:02;3.90;99.90
20528;DHT22;23612;50.894;10.700;2023-12-04T09:58:29;3.60;99.90
20528;DHT22;23612;50.894;10.700;2023-12-04T10:00:56;3.50;99.90
20528;DHT22;23612;50.894;10.700;2023-12-04T10:03:22;3.50;99.90
20528;DHT22;23612;50.894;10.700;2023-12-04T10:05:47;3.30;99.90
20528;DHT22;23612;50.894;10.700;2023-12-04T10:08:13;3.30;99.90
20528;DHT22;23612;50.894;10.700;2023-12-04T10:10:39;3.30;99.90
20528;DHT22;23612;50.894;10.700;2023-12-04T10:13:05;3.30;99.90
20528;DHT22;23612;50.894;10.700;2023-12-04T10:15:30;3.40;99.90
20528;DHT22;23612;50.894;10.700;2023-12-04T10:17:56;3.50;99.90
20528;DHT22;23612;50.894;10.700;2023-12-04T10:20:21;3.50;99.90
20528;DHT22;23612;50.894;10.700;2023-12-04T10:23:02;3.50;99.90
20528;DHT22;23612;50.894;10.700;2023-12-04T10:25:30;3.30;99.90
20528;DHT22;23612;50.894;10.700;2023-12-04T10:28:08;3.20;99.90
20528;DHT22;23612;50.894;10.700;2023-12-04T10:30:34;3.20;99.90
20528;DHT22;23612;50.894;10.700;2023-12-04T10:33:06;3.10;99.90
20528;DHT22;23612;50.894;10.700;2023-12-04T10:35:33;3.00;99.90
20528;DHT22;23612;50.894;10.700;2023-12-04T10:38:02;2.80;99.90
20528;DHT22;23612;50.894;10.700;2023-12-04T10:40:35;2.80;99.90
20528;DHT22;23612;50.894;10.700;2023-12-04T10:43:20;2.90;99.90
20528;DHT22;23612;50.894;10.700;2023-12-04T10:45:47;3.00;99.90
20528;DHT22;23612;50.894;10.700;2023-12-04T10:48:14;3.30;99.90
20528;DHT22;23612;50.894;10.700;2023-12-04T10:50:43;3.60;99.90
20528;DHT22;23612;50.894;10.700;2023-12-04T10:53:10;3.40;99.90
20528;DHT22;23612;50.894;10.700;2023-12-04T10:55:36;3.10;99.90
20528;DHT22;23612;50.894;10.700;2023-12-04T10:58:05;3.30;99.90
20528;DHT22;23612;50.894;10.700;2023-12-04T11:00:36;3.50;99.90
20528;DHT22;23612;50.894;10.700;2023-12-04T11:03:07;3.50;99.90
20528;DHT22;23612;50.894;10.700;2023-12-04T11:05:37;3.60;99.90
20528;DHT22;23612;50.894;10.700;2023-12-04T11:08:05;3.60;99.90
20528;DHT22;23612;50.894;10.700;2023-12-04T11:10:32;3.70;99.90
20528;DHT22;23612;50.894;10.700;2023-12-04T11:13:23;3.70;99.90
20528;DHT22;23612;50.894;10.700;2023-12-04T11:15:52;3.80;99.90
20528;DHT22;23612;50.894;10.700;2023-12-04T11:18:23;3.50;99.90
20528;DHT22;23612;50.894;10.700;2023-12-04T11:21:07;3.40;99.90
20528;DHT22;23612;50.894;10.700;2023-12-04T11:23:34;3.60;99.90
20528;DHT22;23612;50.894;10.700;2023-12-04T11:26:00;3.50;99.90
20528;DHT22;23612;50.894;10.700;2023-12-04T11:28:27;3.40;99.90
20528;DHT22;23612;50.894;10.700;2023-12-04T11:30:53;3.50;99.90
20528;DHT22;23612;50.894;10.700;2023-12-04T11:33:20;3.60;99.90
20528;DHT22;23612;50.894;10.700;2023-12-04T11:35:45;3.50;99.90
20528;DHT22;23612;50.894;10.700;2023-12-04T11:38:14;3.50;99.90
20528;DHT22;23612;50.894;10.700;2023-12-04T11:40:41;3.10;99.90
20528;DHT22;23612;50.894;10.700;2023-12-04T11:43:26;2.90;99.90
20528;DHT22;23612;50.894;10.700;2023-12-04T11:45:52;2.70;99.90
20528;DHT22;23612;50.894;10.700;2023-12-04T11:48:23;2.70;99.90
20528;DHT22;23612;50.894;10.700;2023-12-04T11:50:49;2.50;99.90
20528;DHT22;23612;50.894;10.700;2023-12-04T11:53:16;2.60;99.90
20528;DHT22;23612;50.894;10.700;2023-12-04T11:55:41;2.60;99.90
20528;DHT22;23612;50.894;10.700;2023-12-04T11:58:11;2.50;99.90
20528;DHT22;23612;50.894;10.700;2023-12-04T12:00:37;2.30;99.90
20528;DHT22;23612;50.894;10.700;2023-12-04T12:03:06;2.00;99.90
20528;DHT22;23612;50.894;10.700;2023-12-04T12:05:36;1.90;99.90
20528;DHT22;23612;50.894;10.700;2023-12-04T12:08:04;1.90;99.90
20528;DHT22;23612;50.894;10.700;2023-12-04T12:10:30;1.90;99.90
20528;DHT22;23612;50.894;10.700;2023-12-04T12:12:56;1.90;99.90
20528;DHT22;23612;50.894;10.700;2023-12-04T12:15:25;1.90;99.90
20528;DHT22;23612;50.894;10.700;2023-12-04T12:17:50;1.80;99.90
20528;DHT22;23612;50.894;10.700;2023-12-04T12:20:19;1.80;99.90
20528;DHT22;23612;50.894;10.700;2023-12-04T12:22:46;1.90;99.90
20528;DHT22;23612;50.894;10.700;2023-12-04T12:25:13;2.00;99.90
20528;DHT22;23612;50.894;10.700;2023-12-04T12:27:39;2.20;99.90
20528;DHT22;23612;50.894;10.700;2023-12-04T12:30:06;2.30;99.90
20528;DHT22;23612;50.894;10.700;2023-12-04T12:32:32;2.50;99.90
20528;DHT22;23612;50.894;10.700;2023-12-04T12:34:58;2.60;99.90
20528;DHT22;23612;50.894;10.700;2023-12-04T12:37:23;2.50;99.90
20528;DHT22;23612;50.894;10.700;2023-12-04T12:39:49;2.50;99.90
20528;DHT22;23612;50.894;10.700;2023-12-04T12:42:26;2.50;99.90
20528;DHT22;23612;50.894;10.700;2023-12-04T12:44:53;2.40;99.90
20528;DHT22;23612;50.894;10.700;2023-12-04T12:47:18;2.60;99.90
20528;DHT22;23612;50.894;10.700;2023-12-04T12:49:44;2.70;99.90
20528;DHT22;23612;50.894;10.700;2023-12-04T12:52:10;2.60;99.90
20528;DHT22;23612;50.894;10.700;2023-12-04T12:54:43;2.50;99.90
20528;DHT22;23612;50.894;10.700;2023-12-04T12:57:09;2.40;99.90
20528;DHT22;23612;50.894;10.700;2023-12-04T12:59:35;2.30;99.90
20528;DHT22;23612;50.894;10.700;2023-12-04T13:02:01;2.30;99.90
20528;DHT22;23612;50.894;10.700;2023-12-04T13:04:34;2.40;99.90
20528;DHT22;23612;50.894;10.700;2023-12-04T13:07:00;2.40;99.90
20528;DHT22;23612;50.894;10.700;2023-12-04T13:09:25;2.40;99.90
20528;DHT22;23612;50.894;10.700;2023-12-04T13:11:50;2.40;99.90
20528;DHT22;23612;50.894;10.700;2023-12-04T13:14:17;2.40;99.90
20528;DHT22;23612;50.894;10.700;2023-12-04T13:16:42;2.30;99.90
20528;DHT22;23612;50.894;10.700;2023-12-04T13:19:08;2.20;99.90
20528;DHT22;23612;50.894;10.700;2023-12-04T13:21:34;2.20;99.90
20528;DHT22;23612;50.894;10.700;2023-12-04T13:23:59;2.10;99.90
20528;DHT22;23612;50.894;10.700;2023-12-04T13:26:25;2.10;99.90
20528;DHT22;23612;50.894;10.700;2023-12-04T13:28:50;2.10;99.90
20528;DHT22;23612;50.894;10.700;2023-12-04T13:31:17;2.00;99.90
20528;DHT22;23612;50.894;10.700;2023-12-04T13:33:42;2.00;99.90
20528;DHT22;23612;50.894;10.700;2023-12-04T13:36:09;2.10;99.90
20528;DHT22;23612;50.894;10.700;2023-12-04T13:38:34;2.00;99.90
20528;DHT22;23612;50.894;10.700;2023-12-04T13:41:00;1.90;99.90
20528;DHT22;23612;50.894;10.700;2023-12-04T13:43:34;1.90;99.90
20528;DHT22;23612;50.894;10.700;2023-12-04T13:46:19;1.90;99.90
20528;DHT22;23612;50.894;10.700;2023-12-04T13:48:44;1.80;99.90
20528;DHT22;23612;50.894;10.700;2023-12-04T13:51:11;1.90;99.90
20528;DHT22;23612;50.894;10.700;2023-12-04T13:53:37;1.90;99.90
20528;DHT22;23612;50.894;10.700;2023-12-04T13:56:15;1.90;99.90
20528;DHT22;23612;50.894;10.700;2023-12-04T13:58:47;1.90;99.90
20528;DHT22;23612;50.894;10.700;2023-12-04T14:01:19;1.90;99.90
20528;DHT22;23612;50.894;10.700;2023-12-04T14:03:48;1.90;99.90
20528;DHT22;23612;50.894;10.700;2023-12-04T14:06:14;1.80;99.90
20528;DHT22;23612;50.894;10.700;2023-12-04T14:08:42;1.80;99.90
20528;DHT22;23612;50.894;10.700;2023-12-04T14:11:07;1.80;99.90
20528;DHT22;23612;50.894;10.700;2023-12-04T14:13:35;1.90;99.90
20528;DHT22;23612;50.894;10.700;2023-12-04T14:16:00;1.90;99.90
20528;DHT22;23612;50.894;10.700;2023-12-04T14:18:29;1.90;99.90
20528;DHT22;23612;50.894;10.700;2023-12-04T14:20:56;1.90;99.90
20528;DHT22;23612;50.894;10.700;2023-12-04T14:23:22;1.90;99.90
20528;DHT22;23612;50.894;10.700;2023-12-04T14:25:47;1.90;99.90
20528;DHT22;23612;50.894;10.700;2023-12-04T14:28:13;2.00;99.90
20528;DHT22;23612;50.894;10.700;2023-12-04T14:30:38;1.90;99.90
20528;DHT22;23612;50.894;10.700;2023-12-04T14:33:05;1.90;99.90
20528;DHT22;23612;50.894;10.700;2023-12-04T14:35:31;1.90;99.90
20528;DHT22;23612;50.894;10.700;2023-12-04T14:37:56;1.90;99.90
20528;DHT22;23612;50.894;10.700;2023-12-04T14:40:22;1.80;99.90
20528;DHT22;23612;50.894;10.700;2023-12-04T14:42:48;1.90;99.90
20528;DHT22;23612;50.894;10.700;2023-12-04T14:45:14;1.80;99.90
20528;DHT22;23612;50.894;10.700;2023-12-04T14:47:41;1.80;99.90
20528;DHT22;23612;50.894;10.700;2023-12-04T14:50:07;1.70;99.90
20528;DHT22;23612;50.894;10.700;2023-12-04T14:52:34;1.70;99.90
20528;DHT22;23612;50.894;10.700;2023-12-04T14:55:03;1.70;99.90
20528;DHT22;23612;50.894;10.700;2023-12-04T14:57:35;1.80;99.90
20528;DHT22;23612;50.894;10.700;2023-12-04T15:00:08;1.80;99.90
20528;DHT22;23612;50.894;10.700;2023-12-04T15:02:52;1.70;99.90
20528;DHT22;23612;50.894;10.700;2023-12-04T15:05:56;1.60;99.90
20528;DHT22;23612;50.894;10.700;2023-12-04T15:08:37;1.50;99.90
20528;DHT22;23612;50.894;10.700;2023-12-04T15:11:25;1.40;99.90
20528;DHT22;23612;50.894;10.700;2023-12-04T15:14:19;1.20;99.90
20528;DHT22;23612;50.894;10.700;2023-12-04T15:16:58;1.20;99.90
20528;DHT22;23612;50.894;10.700;2023-12-04T15:19:47;1.10;99.90
20528;DHT22;23612;50.894;10.700;2023-12-04T15:22:35;1.00;99.90